createdAt,value
2022-12-24T00:00:58.082Z,8.85
2022-12-24T00:05:15.079Z,9.30
2022-12-24T00:09:32.255Z,9.80
2022-12-24T00:13:49.687Z,9.43
2022-12-24T00:18:06.887Z,9.90
2022-12-24T00:22:24.096Z,11.20
2022-12-24T00:26:41.162Z,14.30
2022-12-24T00:30:58.297Z,11.95
2022-12-24T00:35:15.510Z,10.82
2022-12-24T00:39:33.526Z,9.70
2022-12-24T00:43:56.552Z,9.52
2022-12-24T00:48:13.436Z,9.27
2022-12-24T00:52:30.501Z,9.10
2022-12-24T00:56:47.376Z,13.00
2022-12-24T01:01:05.666Z,17.02
2022-12-24T01:05:23.507Z,11.52
2022-12-24T01:09:40.443Z,10.85
2022-12-24T01:13:57.509Z,7.63
2022-12-24T01:18:14.509Z,7.88
2022-12-24T01:22:31.656Z,7.72
2022-12-24T01:26:48.532Z,7.65
2022-12-24T01:31:19.351Z,8.05
2022-12-24T01:35:43.459Z,7.10
2022-12-24T01:40:20.384Z,7.50
2022-12-24T01:44:48.067Z,7.13
2022-12-24T01:49:07.041Z,6.75
2022-12-24T01:53:24.458Z,5.57
2022-12-24T01:57:55.805Z,5.10
2022-12-24T02:02:13.645Z,5.75
2022-12-24T02:06:30.829Z,7.43
2022-12-24T02:10:48.745Z,7.47
2022-12-24T02:15:09.458Z,7.78
2022-12-24T02:19:29.343Z,7.97
2022-12-24T02:24:42.036Z,8.93
2022-12-24T02:29:21.478Z,7.97
2022-12-24T02:34:01.750Z,8.57
2022-12-24T02:38:50.021Z,9.10
2022-12-24T02:43:15.629Z,9.65
2022-12-24T02:47:34.420Z,13.18
2022-12-24T02:51:51.565Z,8.13
2022-12-24T02:56:26.586Z,6.68
2022-12-24T03:01:19.344Z,5.97
2022-12-24T03:05:56.443Z,7.10
2022-12-24T03:11:05.967Z,6.07
2022-12-24T03:15:26.411Z,6.63
2022-12-24T03:19:44.274Z,5.07
2022-12-24T03:24:02.207Z,4.63
2022-12-24T03:28:25.101Z,4.25
2022-12-24T03:32:41.999Z,3.75
2022-12-24T03:36:59.100Z,3.75
2022-12-24T03:41:16.418Z,2.90
2022-12-24T03:45:34.775Z,4.27
2022-12-24T03:49:52.442Z,4.88
2022-12-24T03:54:09.409Z,6.40
2022-12-24T03:58:26.161Z,6.55
2022-12-24T04:02:43.754Z,6.32
2022-12-24T04:07:00.647Z,6.93
2022-12-24T04:11:17.979Z,5.03
2022-12-24T04:15:34.762Z,3.83
2022-12-24T04:19:52.439Z,4.07
2022-12-24T04:24:09.303Z,4.15
2022-12-24T04:28:26.472Z,4.30
2022-12-24T04:32:43.342Z,3.97
2022-12-24T04:37:04.388Z,4.82
2022-12-24T04:41:24.582Z,4.78
2022-12-24T04:45:42.000Z,4.95
2022-12-24T04:49:59.348Z,4.75
2022-12-24T04:54:16.445Z,5.13
2022-12-24T04:58:34.696Z,5.38
2022-12-24T05:02:52.000Z,5.65
2022-12-24T05:07:09.059Z,5.80
2022-12-24T05:11:26.954Z,6.70
2022-12-24T05:15:44.939Z,19.48
2022-12-24T05:24:37.818Z,7.38
2022-12-24T05:28:57.756Z,9.60
2022-12-24T05:33:14.631Z,20.08
2022-12-24T05:37:31.715Z,8.10
2022-12-24T05:42:00.347Z,4.83
2022-12-24T05:46:21.527Z,5.80
2022-12-24T05:50:40.547Z,6.70
2022-12-24T05:54:57.635Z,6.57
2022-12-24T05:59:14.501Z,7.00
2022-12-24T06:03:32.909Z,6.55
2022-12-24T06:07:49.797Z,5.78
2022-12-24T06:12:07.378Z,4.70
2022-12-24T06:16:25.806Z,5.15
2022-12-24T06:20:43.033Z,5.45
2022-12-24T06:24:59.923Z,5.50
2022-12-24T06:29:16.980Z,5.68
2022-12-24T06:33:34.734Z,6.05
2022-12-24T06:37:51.874Z,5.10
2022-12-24T06:42:08.721Z,5.15
2022-12-24T06:46:25.988Z,17.23
2022-12-24T06:50:43.305Z,11.07
2022-12-24T06:55:00.459Z,8.33
2022-12-24T06:59:17.291Z,6.53
2022-12-24T07:03:35.436Z,6.50
2022-12-24T07:12:09.670Z,6.35
2022-12-24T07:16:26.658Z,4.70
2022-12-24T07:20:43.958Z,5.60
2022-12-24T07:25:00.940Z,6.30
2022-12-24T07:29:18.051Z,6.90
2022-12-24T07:33:34.931Z,9.57
2022-12-24T07:37:52.056Z,6.78
2022-12-24T07:42:08.959Z,7.55
2022-12-24T07:46:27.357Z,10.13
2022-12-24T07:50:44.304Z,14.77
2022-12-24T07:55:01.432Z,7.47
2022-12-24T07:59:18.273Z,8.40
2022-12-24T08:03:35.692Z,8.15
2022-12-24T08:07:52.592Z,6.93
2022-12-24T08:12:09.727Z,7.32
2022-12-24T08:16:26.790Z,5.88
2022-12-24T08:20:44.409Z,6.97
2022-12-24T08:25:01.344Z,12.07
2022-12-24T08:29:18.399Z,14.40
2022-12-24T08:33:35.454Z,24.73
2022-12-24T08:37:52.617Z,14.68
2022-12-24T08:42:09.479Z,11.68
2022-12-24T08:46:27.172Z,13.93
2022-12-24T08:50:44.622Z,11.32
2022-12-24T08:55:01.833Z,8.63
2022-12-24T08:59:18.774Z,9.00
2022-12-24T09:03:36.035Z,7.15
2022-12-24T09:07:53.347Z,11.07
2022-12-24T09:12:10.559Z,12.20
2022-12-24T09:16:28.099Z,10.35
2022-12-24T09:20:46.992Z,8.15
2022-12-24T09:25:06.410Z,9.70
2022-12-24T09:29:23.496Z,11.27
2022-12-24T09:33:42.214Z,8.18
2022-12-24T09:38:05.147Z,17.88
2022-12-24T09:42:49.108Z,18.83
2022-12-24T09:47:28.625Z,33.97
2022-12-24T09:52:03.626Z,31.65
2022-12-24T09:56:31.740Z,14.23
2022-12-24T10:05:15.855Z,16.08
2022-12-24T10:10:29.715Z,10.57
2022-12-24T10:14:58.351Z,8.43
2022-12-24T10:19:37.501Z,11.20
2022-12-24T10:24:02.205Z,19.38
2022-12-24T10:28:30.230Z,21.35
2022-12-24T10:37:22.925Z,12.80
2022-12-24T10:41:40.249Z,16.23
2022-12-24T10:46:02.319Z,12.73
2022-12-24T10:50:43.106Z,11.25
2022-12-24T10:55:24.540Z,9.40
2022-12-24T10:59:55.092Z,7.20
2022-12-24T11:04:23.278Z,8.65
2022-12-24T11:08:45.410Z,6.18
2022-12-24T11:13:35.799Z,7.65
2022-12-24T11:17:40.343Z,9.23
2022-12-24T11:22:05.642Z,7.03
2022-12-24T11:26:30.491Z,4.45
2022-12-24T11:31:21.243Z,3.85
2022-12-24T11:35:47.891Z,3.67
2022-12-24T11:40:05.722Z,4.03
2022-12-24T11:44:27.898Z,5.20
2022-12-24T11:48:45.388Z,2.35
2022-12-24T11:53:17.856Z,2.55
2022-12-24T11:58:02.653Z,5.30
2022-12-24T12:02:29.763Z,3.90
2022-12-24T12:07:00.665Z,4.77
2022-12-24T12:11:18.435Z,2.40
2022-12-24T12:15:45.867Z,1.77
2022-12-24T12:20:15.162Z,2.53
2022-12-24T12:24:43.941Z,2.55
2022-12-24T12:29:10.593Z,1.98
2022-12-24T12:34:00.634Z,1.92
2022-12-24T12:38:27.445Z,2.20
2022-12-24T12:43:08.520Z,2.17
2022-12-24T12:47:50.257Z,3.00
2022-12-24T12:52:40.902Z,3.00
2022-12-24T12:57:06.338Z,3.47
2022-12-24T13:01:44.860Z,6.25
2022-12-24T13:06:21.139Z,4.30
2022-12-24T13:10:59.983Z,4.68
2022-12-24T13:15:29.873Z,7.88
2022-12-24T13:20:05.729Z,5.97
2022-12-24T13:24:30.917Z,6.13
2022-12-24T13:28:47.926Z,5.68
2022-12-24T13:33:05.453Z,10.25
2022-12-24T13:37:31.570Z,6.68
2022-12-24T13:41:52.320Z,11.32
2022-12-24T13:46:10.513Z,7.20
2022-12-24T13:50:56.879Z,5.47
2022-12-24T13:55:15.900Z,3.63
2022-12-24T13:59:38.872Z,2.42
2022-12-24T14:03:58.597Z,3.70
2022-12-24T14:08:24.401Z,2.67
2022-12-24T14:12:50.266Z,3.38
2022-12-24T14:17:19.075Z,3.97
2022-12-24T14:21:38.636Z,2.30
2022-12-24T14:25:57.453Z,3.20
2022-12-24T14:30:22.624Z,3.30
2022-12-24T14:34:39.400Z,2.75
2022-12-24T14:38:56.359Z,4.40
2022-12-24T14:43:26.197Z,3.25
2022-12-24T14:48:12.837Z,2.92
2022-12-24T14:57:12.342Z,2.88
2022-12-24T15:01:31.624Z,3.40
2022-12-24T15:05:56.931Z,4.22
2022-12-24T15:10:41.067Z,4.68
2022-12-24T15:14:58.172Z,7.70
2022-12-24T15:19:27.494Z,4.95
2022-12-24T15:23:49.785Z,4.78
2022-12-24T15:28:17.672Z,4.03
2022-12-24T15:32:34.817Z,4.65
2022-12-24T15:36:52.380Z,3.87
2022-12-24T15:41:18.996Z,4.15
2022-12-24T15:45:42.244Z,3.80
2022-12-24T15:50:00.459Z,3.60
2022-12-24T15:54:20.901Z,3.80
2022-12-24T15:58:40.514Z,3.22
2022-12-24T16:03:23.572Z,2.90
2022-12-24T16:08:03.119Z,3.47
2022-12-24T16:12:22.557Z,4.28
2022-12-24T16:16:42.106Z,3.78
2022-12-24T16:20:59.090Z,4.43
2022-12-24T16:25:18.859Z,3.72
2022-12-24T16:29:35.608Z,3.13
2022-12-24T16:33:52.933Z,3.00
2022-12-24T16:38:10.265Z,3.92
2022-12-24T16:42:46.042Z,4.88
2022-12-24T16:47:04.618Z,6.65
2022-12-24T16:51:21.592Z,6.10
2022-12-24T16:55:38.279Z,7.28
2022-12-24T16:59:56.046Z,6.27
2022-12-24T17:04:13.474Z,7.07
2022-12-24T17:08:30.469Z,12.25
2022-12-24T17:12:47.213Z,12.95
2022-12-24T17:17:05.108Z,10.65
2022-12-24T17:21:21.930Z,10.00
2022-12-24T17:25:38.853Z,10.70
2022-12-24T17:29:55.981Z,11.05
2022-12-24T17:34:12.723Z,7.87
2022-12-24T17:38:29.956Z,5.95
2022-12-24T17:42:46.838Z,7.93
2022-12-24T17:47:05.456Z,7.25
2022-12-24T17:51:24.501Z,5.85
2022-12-24T17:55:44.320Z,7.45
2022-12-24T18:00:01.294Z,7.75
2022-12-24T18:04:18.009Z,10.57
2022-12-24T18:08:35.584Z,13.15
2022-12-24T18:12:52.324Z,9.18
2022-12-24T18:17:09.332Z,11.13
2022-12-24T18:21:28.737Z,12.05
2022-12-24T18:25:45.675Z,11.75
2022-12-24T18:30:02.495Z,17.65
2022-12-24T18:34:19.510Z,17.40
2022-12-24T18:38:36.906Z,10.38
2022-12-24T18:42:53.933Z,15.63
2022-12-24T18:47:11.050Z,16.38
2022-12-24T18:51:32.313Z,12.48
2022-12-24T18:55:49.083Z,8.52
2022-12-24T19:00:07.116Z,10.00
2022-12-24T19:08:58.474Z,8.18
2022-12-24T19:13:16.988Z,9.15
2022-12-24T19:17:33.743Z,9.38
2022-12-24T19:21:51.796Z,11.88
2022-12-24T19:26:10.362Z,15.52
2022-12-24T19:30:27.221Z,14.95
2022-12-24T19:34:44.159Z,10.70
2022-12-24T19:39:01.296Z,9.45
2022-12-24T19:43:18.057Z,16.08
2022-12-24T19:47:35.050Z,28.73
2022-12-24T19:51:51.864Z,24.55
2022-12-24T19:56:10.104Z,17.95
2022-12-24T20:00:26.871Z,18.05
2022-12-24T20:04:43.948Z,31.00
2022-12-24T20:09:02.744Z,21.17
2022-12-24T20:13:19.783Z,14.77
2022-12-24T20:17:36.479Z,12.65
2022-12-24T20:21:53.452Z,11.05
2022-12-24T20:26:13.470Z,8.93
2022-12-24T20:30:30.491Z,6.95
2022-12-24T20:34:47.251Z,5.55
2022-12-24T20:39:05.968Z,5.93
2022-12-24T20:43:24.570Z,5.32
2022-12-24T20:47:41.702Z,6.82
2022-12-24T20:51:58.667Z,6.28
2022-12-24T20:56:17.330Z,6.50
2022-12-24T21:00:34.304Z,7.32
2022-12-24T21:04:54.192Z,6.38
2022-12-24T21:09:15.209Z,5.90
2022-12-24T21:13:31.991Z,6.75
2022-12-24T21:17:49.320Z,7.00
2022-12-24T21:22:06.200Z,6.47
2022-12-24T21:26:23.482Z,6.63
2022-12-24T21:30:40.963Z,7.40
2022-12-24T21:34:57.820Z,6.68
2022-12-24T21:39:15.109Z,8.33
2022-12-24T21:43:32.811Z,6.40
2022-12-24T21:47:49.750Z,6.75
2022-12-24T21:52:06.473Z,11.00
2022-12-24T21:56:25.043Z,12.95
2022-12-24T22:00:42.003Z,9.48
2022-12-24T22:04:58.760Z,6.72
2022-12-24T22:09:34.144Z,6.65
2022-12-24T22:13:50.925Z,6.65
2022-12-24T22:18:08.283Z,6.13
2022-12-24T22:22:25.212Z,7.33
2022-12-24T22:26:42.204Z,8.57
2022-12-24T22:30:59.026Z,8.55
2022-12-24T22:35:16.169Z,9.88
2022-12-24T22:39:33.066Z,9.53
2022-12-24T22:43:50.458Z,7.68
2022-12-24T22:48:07.601Z,8.02
2022-12-24T22:52:24.747Z,8.57
2022-12-24T22:56:42.008Z,23.03
2022-12-24T23:00:59.044Z,26.17
2022-12-24T23:09:34.340Z,16.83
2022-12-24T23:14:10.109Z,21.53
2022-12-24T23:18:26.872Z,16.55
2022-12-24T23:22:44.653Z,15.90
2022-12-24T23:27:01.850Z,16.10
2022-12-24T23:31:20.049Z,14.83
2022-12-24T23:39:54.009Z,14.30
2022-12-24T23:44:10.928Z,12.77
2022-12-24T23:48:27.904Z,11.48
2022-12-24T23:52:44.868Z,10.90
2022-12-24T23:57:01.701Z,13.07
